Time;durP1;ratioP1;P1;durP2;ratioP2;P2;SDS_P1;SDS_P2;PMS_P1;PMS_P2;Temp;Humidity;BMP_temperature;BMP_pressure;BME280_temperature;BME280_humidity;BME280_pressure;Samples;Min_cycle;Max_cycle;Signal;HPM_P1;HPM_P2
2022/12/20 00:01:09;;;;;;;5.43;4.93;;;1.00;99.90;;;;;;5003470;28;20208;-74
2022/12/20 00:03:37;;;;;;;5.60;5.15;;;1.00;99.90;;;;;;5003461;28;20260;-75
2022/12/20 00:06:04;;;;;;;5.25;4.85;;;1.00;99.90;;;;;;5004156;28;20204;-75
2022/12/20 00:08:33;;;;;;;5.40;5.00;;;1.00;99.90;;;;;;5011636;28;20189;-74
2022/12/20 00:11:03;;;;;;;5.70;5.20;;;0.90;99.90;;;;;;5001737;28;20258;-75
2022/12/20 00:13:31;;;;;;;5.32;4.82;;;0.90;99.90;;;;;;5005884;28;20201;-75
2022/12/20 00:16:06;;;;;;;5.78;5.38;;;0.90;99.90;;;;;;5001916;28;20248;-75
2022/12/20 00:18:34;;;;;;;5.38;4.97;;;0.90;99.90;;;;;;5005268;28;20279;-75
2022/12/20 00:21:02;;;;;;;6.50;6.00;;;0.90;99.90;;;;;;5004832;28;20205;-75
2022/12/20 00:23:29;;;;;;;5.72;5.30;;;0.90;99.90;;;;;;5002367;28;20205;-74
2022/12/20 00:26:02;;;;;;;5.97;5.40;;;0.90;99.90;;;;;;5004780;28;20201;-74
2022/12/20 00:28:29;;;;;;;5.97;5.50;;;0.90;99.90;;;;;;5003201;28;20220;-75
2022/12/20 00:30:56;;;;;;;5.75;5.25;;;0.90;99.90;;;;;;4998941;28;20196;-76
2022/12/20 00:33:23;;;;;;;6.32;5.82;;;0.90;99.90;;;;;;5002327;28;20196;-75
2022/12/20 00:35:52;;;;;;;6.10;5.60;;;0.80;99.90;;;;;;5001501;28;20220;-75
2022/12/20 00:38:19;;;;;;;6.15;5.65;;;0.90;99.90;;;;;;5003123;28;20231;-74
2022/12/20 00:40:46;;;;;;;6.40;5.80;;;0.90;99.90;;;;;;5001666;28;20205;-75
2022/12/20 00:43:13;;;;;;;5.78;5.28;;;0.90;99.90;;;;;;5002024;28;20207;-75
2022/12/20 00:45:40;;;;;;;6.20;5.60;;;1.00;99.90;;;;;;5003951;28;20224;-75
2022/12/20 00:48:08;;;;;;;5.80;5.40;;;1.00;99.90;;;;;;4999645;28;20861;-74
2022/12/20 00:50:35;;;;;;;5.38;4.88;;;1.00;99.90;;;;;;4984117;28;20227;-75
2022/12/20 00:53:04;;;;;;;5.80;5.30;;;1.00;99.90;;;;;;4984038;28;20626;-74
2022/12/20 00:55:31;;;;;;;5.57;5.18;;;1.00;99.90;;;;;;4983194;28;20218;-74
2022/12/20 00:57:58;;;;;;;5.60;5.20;;;1.00;99.90;;;;;;4981797;28;20734;-75
2022/12/20 01:00:25;;;;;;;6.50;6.00;;;1.00;99.90;;;;;;4982114;28;20225;-75
2022/12/20 01:02:52;;;;;;;5.97;5.47;;;1.00;99.90;;;;;;4996403;28;20196;-77
2022/12/20 01:05:19;;;;;;;6.15;5.72;;;0.90;99.90;;;;;;5002999;28;20219;-74
2022/12/20 01:07:46;;;;;;;6.15;5.72;;;0.90;99.90;;;;;;5004485;28;20228;-75
2022/12/20 01:10:15;;;;;;;5.40;5.00;;;0.80;99.90;;;;;;5001907;28;20216;-75
2022/12/20 01:12:42;;;;;;;5.43;5.03;;;0.90;99.90;;;;;;5001634;28;20196;-75
2022/12/20 01:15:10;;;;;;;5.75;5.35;;;0.90;99.90;;;;;;4999605;28;20216;-76
2022/12/20 01:17:37;;;;;;;6.15;5.75;;;0.80;99.90;;;;;;5004932;28;20223;-75
2022/12/20 01:20:05;;;;;;;6.07;5.68;;;0.90;99.90;;;;;;5006137;28;20235;-76
2022/12/20 01:22:32;;;;;;;6.03;5.53;;;0.90;99.90;;;;;;5002573;28;20564;-74
2022/12/20 01:24:59;;;;;;;6.18;5.57;;;0.80;99.90;;;;;;5004189;28;20216;-75
2022/12/20 01:27:28;;;;;;;6.18;5.78;;;0.80;99.90;;;;;;5003312;28;20227;-75
2022/12/20 01:29:56;;;;;;;5.82;5.40;;;0.80;99.90;;;;;;5000184;28;20220;-73
2022/12/20 01:32:23;;;;;;;6.25;5.75;;;0.70;99.90;;;;;;5003312;28;20208;-75
2022/12/20 01:34:50;;;;;;;6.55;6.00;;;0.70;99.90;;;;;;5001853;28;20236;-76
2022/12/20 01:37:17;;;;;;;5.88;5.40;;;0.70;99.90;;;;;;4999758;28;20212;-75
2022/12/20 01:39:44;;;;;;;5.70;5.30;;;0.60;99.90;;;;;;5004395;28;20221;-75
2022/12/20 01:42:14;;;;;;;5.63;5.13;;;0.70;99.90;;;;;;5005433;28;20211;-74
2022/12/20 01:44:59;;;;;;;5.50;5.10;;;0.70;99.90;;;;;;5002236;28;20216;-75
2022/12/20 01:47:29;;;;;;;4.97;4.68;;;0.70;99.90;;;;;;5002063;28;20580;-74
2022/12/20 01:49:58;;;;;;;6.10;5.63;;;0.70;99.90;;;;;;5002083;28;20225;-75
2022/12/20 01:52:32;;;;;;;5.28;4.88;;;0.70;99.90;;;;;;5004814;28;20216;-75
2022/12/20 01:55:07;;;;;;;5.68;5.20;;;0.80;99.90;;;;;;5002385;28;20222;-75
2022/12/20 01:57:40;;;;;;;5.57;5.18;;;0.80;99.90;;;;;;5002157;28;20221;-75
2022/12/20 02:00:10;;;;;;;6.10;5.63;;;0.80;99.90;;;;;;4999059;28;20219;-75
2022/12/20 02:02:38;;;;;;;5.53;5.13;;;0.80;99.90;;;;;;5001669;28;20200;-75
2022/12/20 02:05:06;;;;;;;6.03;5.53;;;0.80;99.90;;;;;;5002040;28;20231;-75
2022/12/20 02:07:35;;;;;;;5.50;5.10;;;0.80;99.90;;;;;;5001298;28;20224;-74
2022/12/20 02:10:03;;;;;;;5.72;5.32;;;0.90;99.90;;;;;;5001607;28;20605;-74
2022/12/20 02:12:37;;;;;;;6.13;5.63;;;0.80;99.90;;;;;;5004906;28;20589;-75
2022/12/20 02:15:30;;;;;;;5.47;5.07;;;0.90;99.90;;;;;;5002049;28;20627;-75
2022/12/20 02:18:16;;;;;;;5.10;4.70;;;0.90;99.90;;;;;;5006618;28;20274;-75
2022/12/20 02:21:08;;;;;;;5.53;5.03;;;0.90;99.90;;;;;;5004958;28;20300;-76
2022/12/20 02:24:16;;;;;;;5.07;4.68;;;0.80;99.90;;;;;;5002817;28;20620;-74
2022/12/20 02:27:43;;;;;;;6.00;5.50;;;0.80;99.90;;;;;;5003191;28;20722;-75
2022/12/20 02:30:17;;;;;;;5.53;5.13;;;0.80;99.90;;;;;;5003633;28;20247;-76
2022/12/20 02:32:59;;;;;;;5.88;5.45;;;0.80;99.90;;;;;;5003039;28;20204;-75
2022/12/20 02:35:30;;;;;;;6.22;5.82;;;0.80;99.90;;;;;;4997805;28;20711;-75
2022/12/20 02:37:59;;;;;;;5.65;5.15;;;0.80;99.90;;;;;;4999552;28;20219;-76
2022/12/20 02:40:32;;;;;;;5.35;5.05;;;0.80;99.90;;;;;;5002900;28;20220;-74
2022/12/20 02:43:03;;;;;;;5.50;5.10;;;0.80;99.90;;;;;;5004666;28;20572;-75
2022/12/20 02:45:34;;;;;;;5.63;5.22;;;0.80;99.90;;;;;;5002334;28;20208;-74
2022/12/20 02:48:06;;;;;;;5.63;5.22;;;0.80;99.90;;;;;;5000219;28;20261;-76
2022/12/20 02:50:36;;;;;;;6.28;5.68;;;0.80;99.90;;;;;;5002555;28;20220;-77
2022/12/20 02:53:05;;;;;;;5.20;4.80;;;0.80;99.90;;;;;;5014531;28;20185;-75
2022/12/20 02:55:41;;;;;;;5.65;5.25;;;0.80;99.90;;;;;;5004532;28;20212;-75
2022/12/20 02:58:15;;;;;;;5.38;5.03;;;0.70;99.90;;;;;;5003508;28;20220;-75
2022/12/20 03:00:47;;;;;;;5.22;4.93;;;0.70;99.90;;;;;;4985728;28;20217;-73
2022/12/20 03:03:23;;;;;;;5.90;5.38;;;0.70;99.90;;;;;;4981539;28;20220;-75
2022/12/20 03:05:53;;;;;;;5.72;5.32;;;0.70;99.90;;;;;;4982630;28;20687;-76
2022/12/20 03:08:21;;;;;;;5.40;4.93;;;0.70;99.90;;;;;;4982694;28;20640;-76
2022/12/20 03:10:49;;;;;;;5.57;5.18;;;0.70;99.90;;;;;;4978700;28;20211;-74
2022/12/20 03:13:16;;;;;;;5.50;5.10;;;0.70;99.90;;;;;;4982906;28;20212;-74
2022/12/20 03:15:44;;;;;;;5.57;5.18;;;0.70;99.90;;;;;;4982493;28;20221;-76
2022/12/20 03:18:11;;;;;;;5.65;5.15;;;0.60;99.90;;;;;;4981970;28;20235;-75
2022/12/20 03:20:39;;;;;;;5.70;5.32;;;0.60;99.90;;;;;;4986175;28;20699;-75
2022/12/20 03:23:06;;;;;;;5.72;5.32;;;0.60;99.90;;;;;;4985193;28;20204;-75
2022/12/20 03:25:34;;;;;;;5.28;4.88;;;0.60;99.90;;;;;;5001911;28;20227;-74
2022/12/20 03:28:01;;;;;;;5.45;5.05;;;0.60;99.90;;;;;;5002905;28;20221;-75
2022/12/20 03:30:28;;;;;;;5.82;5.32;;;0.60;99.90;;;;;;5005863;28;20216;-76
2022/12/20 03:32:57;;;;;;;6.53;6.00;;;0.60;99.90;;;;;;5005645;28;20207;-75
2022/12/20 03:35:24;;;;;;;5.95;5.50;;;0.60;99.90;;;;;;5007552;28;20247;-77
2022/12/20 03:37:51;;;;;;;5.43;5.03;;;0.60;99.90;;;;;;5007200;28;20216;-75
2022/12/20 03:40:18;;;;;;;5.93;5.53;;;0.60;99.90;;;;;;5005910;28;20228;-75
2022/12/20 03:42:45;;;;;;;5.82;5.43;;;0.50;99.90;;;;;;5007953;28;20196;-75
2022/12/20 03:45:12;;;;;;;5.60;5.18;;;0.50;99.90;;;;;;5012702;28;20216;-77
2022/12/20 03:47:39;;;;;;;6.50;5.90;;;0.50;99.90;;;;;;5016536;28;20222;-75
2022/12/20 03:50:09;;;;;;;5.80;5.40;;;0.40;99.90;;;;;;5010412;28;20227;-74
2022/12/20 03:52:36;;;;;;;5.43;5.00;;;0.50;99.90;;;;;;5002884;28;20208;-75
2022/12/20 03:55:04;;;;;;;5.45;5.05;;;0.40;99.90;;;;;;5003115;28;20228;-74
2022/12/20 03:57:31;;;;;;;5.50;5.10;;;0.50;99.90;;;;;;5002714;28;20710;-75
2022/12/20 03:59:59;;;;;;;5.20;4.90;;;0.50;99.90;;;;;;5009604;28;20220;-76
2022/12/20 04:02:26;;;;;;;5.65;5.25;;;0.50;99.90;;;;;;5006266;28;20196;-75
2022/12/20 04:04:53;;;;;;;5.53;5.13;;;0.50;99.90;;;;;;5003347;28;20627;-75
2022/12/20 04:07:21;;;;;;;5.65;5.15;;;0.50;99.90;;;;;;5004214;28;20231;-75
2022/12/20 04:09:48;;;;;;;5.25;4.93;;;0.50;99.90;;;;;;4995526;28;20225;-75
2022/12/20 04:12:15;;;;;;;5.07;4.78;;;0.50;99.90;;;;;;4983863;28;20498;-75
2022/12/20 04:14:42;;;;;;;5.28;4.88;;;0.50;99.90;;;;;;4988403;28;20222;-75
2022/12/20 04:17:09;;;;;;;5.38;4.97;;;0.50;99.90;;;;;;4992399;28;20228;-74
2022/12/20 04:19:36;;;;;;;5.03;4.72;;;0.50;99.90;;;;;;4992194;28;20227;-74
2022/12/20 04:22:04;;;;;;;5.35;4.95;;;0.50;99.90;;;;;;4993834;28;20205;-74
2022/12/20 04:24:32;;;;;;;5.40;5.07;;;0.50;99.90;;;;;;4988101;28;20216;-75
2022/12/20 04:26:59;;;;;;;5.57;5.18;;;0.50;99.90;;;;;;4984981;28;20955;-75
2022/12/20 04:29:26;;;;;;;5.65;5.22;;;0.50;99.90;;;;;;4987902;28;20224;-75
2022/12/20 04:31:53;;;;;;;5.05;4.75;;;0.50;99.90;;;;;;4990025;28;20201;-75
2022/12/20 04:34:20;;;;;;;5.68;5.28;;;0.50;99.90;;;;;;4986841;28;20232;-75
2022/12/20 04:36:47;;;;;;;5.20;4.80;;;0.50;99.90;;;;;;4986938;28;20240;-74
2022/12/20 04:39:14;;;;;;;5.28;4.88;;;0.50;99.90;;;;;;4989075;28;20232;-75
2022/12/20 04:41:43;;;;;;;5.70;5.30;;;0.50;99.90;;;;;;5004383;28;20197;-74
2022/12/20 04:44:10;;;;;;;6.00;5.60;;;0.50;99.90;;;;;;4986912;28;20711;-74
2022/12/20 04:46:37;;;;;;;6.20;5.70;;;0.50;99.90;;;;;;4989053;28;20220;-74
2022/12/20 04:49:04;;;;;;;5.05;4.65;;;0.50;99.90;;;;;;4985999;28;20249;-75
2022/12/20 04:51:31;;;;;;;5.68;5.28;;;0.60;99.90;;;;;;4987914;28;20224;-74
2022/12/20 04:53:57;;;;;;;5.55;5.15;;;0.60;99.90;;;;;;4988560;28;20236;-75
2022/12/20 04:56:27;;;;;;;5.70;5.30;;;0.60;99.90;;;;;;4985257;28;20220;-75
2022/12/20 04:58:58;;;;;;;5.43;5.03;;;0.60;99.90;;;;;;4985304;28;20572;-74
2022/12/20 05:01:25;;;;;;;6.07;5.57;;;0.50;99.90;;;;;;4983458;28;20201;-74
2022/12/20 05:03:52;;;;;;;5.60;5.20;;;0.50;99.90;;;;;;4984926;28;20228;-74
2022/12/20 05:06:25;;;;;;;6.25;5.75;;;0.50;99.90;;;;;;4983738;28;21414;-76
2022/12/20 05:08:54;;;;;;;6.90;6.30;;;0.50;99.90;;;;;;4991195;28;20228;-74
2022/12/20 05:11:21;;;;;;;6.85;6.30;;;0.50;99.90;;;;;;5002179;28;20212;-74
2022/12/20 05:13:48;;;;;;;7.20;6.60;;;0.40;99.90;;;;;;5004708;28;20223;-75
2022/12/20 05:16:16;;;;;;;8.50;7.57;;;0.40;99.90;;;;;;5004090;28;20223;-75
2022/12/20 05:18:43;;;;;;;9.15;8.30;;;0.40;99.90;;;;;;5003928;28;20229;-75
2022/12/20 05:26:40;;;;;;;7.53;6.93;;;0.40;99.90;;;;;;5006132;28;20309;-74
2022/12/20 05:29:07;;;;;;;7.50;6.80;;;0.40;99.90;;;;;;5004763;28;20224;-74
2022/12/20 05:31:35;;;;;;;7.47;6.88;;;0.40;99.90;;;;;;5004236;28;20203;-75
2022/12/20 05:34:02;;;;;;;6.75;6.20;;;0.40;99.90;;;;;;5008448;28;20227;-75
2022/12/20 05:36:29;;;;;;;6.32;5.82;;;0.30;99.90;;;;;;5014605;28;20675;-75
2022/12/20 05:38:56;;;;;;;6.53;6.00;;;0.40;99.90;;;;;;5000738;28;20274;-76
2022/12/20 05:41:24;;;;;;;6.07;5.57;;;0.40;99.90;;;;;;4998786;28;20215;-74
2022/12/20 05:43:51;;;;;;;6.82;6.28;;;0.40;99.90;;;;;;5004475;28;20228;-75
2022/12/20 05:46:18;;;;;;;5.50;5.10;;;0.40;99.90;;;;;;5003629;28;20220;-74
2022/12/20 05:48:47;;;;;;;5.28;4.85;;;0.40;99.90;;;;;;5003556;28;20220;-75
2022/12/20 05:51:14;;;;;;;5.95;5.50;;;0.40;99.90;;;;;;5001289;28;20867;-74
2022/12/20 05:53:41;;;;;;;6.50;6.00;;;0.40;99.90;;;;;;5002773;28;20232;-74
2022/12/20 05:56:08;;;;;;;5.75;5.35;;;0.40;99.90;;;;;;5003939;28;20235;-74
2022/12/20 05:58:35;;;;;;;6.05;5.63;;;0.40;99.90;;;;;;5004729;28;20315;-74
2022/12/20 06:01:04;;;;;;;6.18;5.68;;;0.40;99.90;;;;;;5000171;28;20200;-75
2022/12/20 06:03:31;;;;;;;6.18;5.78;;;0.40;99.90;;;;;;5002229;28;20208;-75
2022/12/20 06:05:59;;;;;;;5.35;5.03;;;0.40;99.90;;;;;;5003598;28;20208;-75
2022/12/20 06:08:27;;;;;;;5.78;5.38;;;0.40;99.90;;;;;;5007115;28;20209;-75
2022/12/20 06:10:54;;;;;;;5.40;4.93;;;0.40;99.90;;;;;;5002893;28;20293;-75
2022/12/20 06:13:22;;;;;;;5.85;5.38;;;0.40;99.90;;;;;;5004961;28;20748;-74
2022/12/20 06:15:49;;;;;;;6.00;5.50;;;0.30;99.90;;;;;;5008872;28;20204;-75
2022/12/20 06:18:16;;;;;;;6.03;5.63;;;0.30;99.90;;;;;;5000928;28;20638;-75
2022/12/20 06:20:43;;;;;;;5.85;5.40;;;0.30;99.90;;;;;;5002961;28;20196;-76
2022/12/20 06:23:11;;;;;;;5.45;5.05;;;0.30;99.90;;;;;;5000641;28;20197;-74
2022/12/20 06:25:38;;;;;;;5.32;4.93;;;0.40;99.90;;;;;;5001716;28;20217;-75
2022/12/20 06:28:06;;;;;;;5.28;4.88;;;0.40;99.90;;;;;;5010373;28;20223;-77
2022/12/20 06:30:34;;;;;;;5.13;4.80;;;0.40;99.90;;;;;;5008692;28;20346;-75
2022/12/20 06:33:01;;;;;;;5.68;5.18;;;0.40;99.90;;;;;;5000680;28;20262;-74
2022/12/20 06:35:28;;;;;;;5.28;4.93;;;0.40;99.90;;;;;;5004992;28;20227;-76
2022/12/20 06:37:55;;;;;;;5.63;5.22;;;0.40;99.90;;;;;;5002784;28;20227;-75
2022/12/20 06:40:24;;;;;;;5.35;4.95;;;0.40;99.90;;;;;;5000583;28;20216;-75
2022/12/20 06:42:51;;;;;;;5.50;5.10;;;0.40;99.90;;;;;;5000558;28;20200;-75
2022/12/20 06:45:18;;;;;;;5.35;4.95;;;0.40;99.90;;;;;;5000048;28;20228;-73
2022/12/20 06:47:45;;;;;;;6.70;6.10;;;0.50;99.90;;;;;;4998625;28;20231;-75
2022/12/20 06:50:12;;;;;;;6.13;5.60;;;0.40;99.90;;;;;;4999357;28;20221;-76
2022/12/20 06:52:40;;;;;;;6.05;5.47;;;0.40;99.90;;;;;;5005147;28;20203;-75
2022/12/20 06:55:08;;;;;;;6.55;6.00;;;0.50;99.90;;;;;;5002016;28;20223;-77
2022/12/20 06:57:36;;;;;;;5.90;5.50;;;0.50;99.90;;;;;;5003878;28;20239;-75
2022/12/20 07:00:07;;;;;;;5.97;5.57;;;0.50;99.90;;;;;;5001058;28;20627;-76
2022/12/20 07:02:34;;;;;;;6.10;5.70;;;0.50;99.90;;;;;;5001897;28;20216;-75
2022/12/20 07:05:01;;;;;;;6.50;5.95;;;0.50;99.90;;;;;;5000113;28;20591;-75
2022/12/20 07:07:28;;;;;;;6.03;5.35;;;0.50;99.90;;;;;;5006216;28;20220;-75
2022/12/20 07:09:55;;;;;;;7.03;6.43;;;0.50;99.90;;;;;;5005723;28;20637;-75
2022/12/20 07:12:22;;;;;;;7.05;6.45;;;0.50;99.90;;;;;;5003296;28;20212;-76
2022/12/20 07:14:51;;;;;;;6.70;6.10;;;0.50;99.90;;;;;;4998115;28;20592;-75
2022/12/20 07:17:18;;;;;;;6.38;5.88;;;0.50;99.90;;;;;;5005980;28;20252;-73
2022/12/20 07:19:46;;;;;;;6.75;6.15;;;0.50;99.90;;;;;;5007930;28;20228;-76
2022/12/20 07:22:13;;;;;;;6.10;5.60;;;0.50;99.90;;;;;;5008045;28;20200;-79
2022/12/20 07:24:40;;;;;;;6.20;5.70;;;0.50;99.90;;;;;;5015859;28;20220;-76
2022/12/20 07:27:07;;;;;;;5.68;5.18;;;0.60;99.90;;;;;;5005829;28;20208;-76
2022/12/20 07:29:35;;;;;;;6.45;5.93;;;0.60;99.90;;;;;;5007221;28;20244;-75
2022/12/20 07:32:03;;;;;;;6.03;5.63;;;0.70;99.90;;;;;;5003465;28;20434;-76
2022/12/20 07:34:30;;;;;;;6.95;6.30;;;0.80;99.90;;;;;;5004170;28;20737;-76
2022/12/20 07:36:57;;;;;;;6.40;5.90;;;0.80;99.90;;;;;;5008423;28;20224;-75
2022/12/20 07:39:24;;;;;;;12.45;6.20;;;0.90;99.90;;;;;;5007097;28;20270;-76
2022/12/20 07:41:54;;;;;;;6.82;5.93;;;1.10;99.90;;;;;;5005301;28;20291;-76
2022/12/20 07:44:21;;;;;;;7.68;6.95;;;1.70;99.90;;;;;;5004846;28;20222;-75
2022/12/20 07:46:48;;;;;;;6.63;6.07;;;2.20;99.90;;;;;;5006480;28;20208;-76
2022/12/20 07:49:16;;;;;;;8.02;7.22;;;2.20;99.90;;;;;;5000160;28;20227;-76
2022/12/20 07:51:48;;;;;;;7.18;6.57;;;2.10;99.90;;;;;;5005495;28;20659;-76
2022/12/20 07:54:20;;;;;;;7.60;7.00;;;2.00;99.90;;;;;;4996383;28;20216;-74
2022/12/20 07:56:50;;;;;;;7.15;6.55;;;2.00;99.90;;;;;;4988437;28;20232;-76
2022/12/20 07:59:21;;;;;;;7.88;7.18;;;1.90;99.90;;;;;;5003992;28;20227;-76
2022/12/20 08:01:49;;;;;;;7.07;6.57;;;1.90;99.90;;;;;;5002120;28;20704;-76
2022/12/20 08:04:20;;;;;;;7.60;6.90;;;1.90;99.90;;;;;;5004404;28;20784;-76
2022/12/20 08:06:49;;;;;;;6.95;6.40;;;2.10;99.90;;;;;;5003221;28;20798;-76
2022/12/20 08:09:17;;;;;;;6.57;6.07;;;2.10;99.90;;;;;;5001709;28;20229;-76
2022/12/20 08:11:47;;;;;;;7.20;6.60;;;2.20;99.90;;;;;;5003871;28;20197;-76
2022/12/20 08:14:14;;;;;;;6.68;6.07;;;2.20;99.90;;;;;;4999624;28;20217;-76
2022/12/20 08:17:03;;;;;;;6.53;6.03;;;2.30;99.90;;;;;;5007653;28;20223;-77
2022/12/20 08:19:31;;;;;;;6.70;6.20;;;2.30;99.90;;;;;;4995482;28;20219;-75
2022/12/20 08:21:58;;;;;;;8.13;7.45;;;2.40;99.90;;;;;;5006135;28;20657;-76
2022/12/20 08:24:25;;;;;;;8.10;7.50;;;2.40;99.90;;;;;;5001195;28;20220;-75
2022/12/20 08:26:52;;;;;;;8.18;7.47;;;2.40;99.90;;;;;;4999825;28;20582;-75
2022/12/20 08:29:19;;;;;;;8.20;7.50;;;2.40;99.90;;;;;;4996282;28;20773;-74
2022/12/20 08:31:47;;;;;;;9.10;8.23;;;2.40;99.90;;;;;;5000201;28;20201;-76
2022/12/20 08:34:14;;;;;;;10.13;9.23;;;2.40;99.90;;;;;;5002549;28;20228;-76
2022/12/20 08:36:42;;;;;;;10.25;9.35;;;2.40;99.90;;;;;;4998978;28;20228;-76
2022/12/20 08:39:10;;;;;;;9.82;8.90;;;2.40;99.90;;;;;;5000178;28;20220;-76
2022/12/20 08:41:37;;;;;;;10.65;9.65;;;2.40;99.90;;;;;;5002341;28;20674;-76
2022/12/20 08:44:05;;;;;;;12.13;10.88;;;2.50;99.90;;;;;;4998907;28;20220;-76
2022/12/20 08:46:32;;;;;;;12.23;10.98;;;2.50;99.90;;;;;;4996205;28;20224;-76
2022/12/20 08:48:59;;;;;;;11.52;10.30;;;2.60;99.90;;;;;;4998506;28;20220;-77
2022/12/20 08:51:26;;;;;;;12.32;11.07;;;2.70;99.90;;;;;;5000150;28;20223;-76
2022/12/20 08:53:55;;;;;;;14.32;11.73;;;2.90;99.90;;;;;;4998673;28;20225;-76
2022/12/20 08:56:22;;;;;;;11.02;10.02;;;3.00;99.90;;;;;;4999965;28;20220;-77
2022/12/20 08:58:49;;;;;;;11.90;10.70;;;3.00;99.90;;;;;;5001917;28;20590;-76
2022/12/20 09:01:19;;;;;;;11.57;10.35;;;3.00;99.90;;;;;;4996244;28;20204;-77
2022/12/20 09:03:48;;;;;;;10.45;9.45;;;3.10;99.90;;;;;;5003598;28;20227;-77
2022/12/20 09:06:17;;;;;;;11.20;10.07;;;3.00;99.90;;;;;;5001372;28;20204;-76
2022/12/20 09:08:44;;;;;;;10.93;9.55;;;3.10;99.90;;;;;;5000548;28;20235;-76
2022/12/20 09:11:15;;;;;;;10.95;9.23;;;3.30;99.90;;;;;;5011111;28;20582;-76
2022/12/20 09:13:44;;;;;;;11.02;9.85;;;3.80;99.90;;;;;;4998938;28;20274;-76
2022/12/20 09:16:17;;;;;;;9.98;9.07;;;4.70;99.90;;;;;;5002667;28;20283;-76
2022/12/20 09:18:44;;;;;;;10.52;9.50;;;5.50;99.90;;;;;;5004023;28;20220;-77
2022/12/20 09:21:12;;;;;;;9.20;8.30;;;6.30;99.90;;;;;;5004499;28;20231;-75
2022/12/20 09:23:39;;;;;;;9.52;8.63;;;6.90;99.90;;;;;;4997270;28;20221;-76
2022/12/20 09:26:10;;;;;;;8.43;7.63;;;7.00;99.90;;;;;;5002046;28;20215;-75
2022/12/20 09:28:38;;;;;;;9.35;8.55;;;7.30;99.90;;;;;;4997900;28;20236;-77
2022/12/20 09:31:07;;;;;;;9.50;8.55;;;7.50;99.90;;;;;;5004048;28;20212;-76
2022/12/20 09:33:35;;;;;;;9.85;8.95;;;7.40;99.90;;;;;;5000278;28;20631;-76
2022/12/20 09:36:03;;;;;;;9.15;8.25;;;7.40;99.90;;;;;;4995826;28;20505;-76
2022/12/20 09:38:31;;;;;;;9.68;8.77;;;7.60;99.90;;;;;;5002479;28;20645;-77
2022/12/20 09:41:01;;;;;;;9.10;8.23;;;8.10;99.90;;;;;;5003587;28;20201;-75
2022/12/20 09:43:28;;;;;;;8.15;7.35;;;8.50;99.90;;;;;;5001125;28;20196;-76
2022/12/20 09:46:02;;;;;;;8.80;7.90;;;9.40;99.90;;;;;;4999756;28;20223;-76
2022/12/20 09:48:34;;;;;;;8.85;7.95;;;10.10;99.90;;;;;;5000137;28;20204;-76
2022/12/20 09:51:11;;;;;;;8.70;7.90;;;10.40;99.90;;;;;;5001804;28;20239;-76
2022/12/20 09:53:50;;;;;;;11.52;8.82;;;10.20;99.90;;;;;;4998485;28;20224;-76
2022/12/20 09:56:24;;;;;;;11.48;9.32;;;9.80;99.90;;;;;;5001102;28;20613;-75
2022/12/20 09:59:01;;;;;;;10.10;9.05;;;9.20;99.90;;;;;;5000919;28;20223;-75
2022/12/20 10:01:32;;;;;;;10.75;9.70;;;8.40;99.90;;;;;;4999854;28;20200;-76
2022/12/20 10:04:04;;;;;;;10.32;9.32;;;7.70;99.90;;;;;;5010103;28;20224;-77
2022/12/20 10:06:42;;;;;;;10.85;9.75;;;7.20;99.90;;;;;;5009740;28;20227;-75
2022/12/20 10:09:17;;;;;;;10.27;9.38;;;6.70;99.90;;;;;;5000191;28;20216;-76
2022/12/20 10:11:56;;;;;;;10.60;9.50;;;6.30;99.90;;;;;;5002407;28;20200;-76
2022/12/20 10:14:47;;;;;;;10.60;9.60;;;6.10;99.90;;;;;;4995445;28;20994;-76
2022/12/20 10:17:22;;;;;;;11.18;9.98;;;6.00;99.90;;;;;;4999171;28;20282;-75
2022/12/20 10:20:07;;;;;;;11.00;9.90;;;5.90;99.90;;;;;;4999016;28;20553;-75
2022/12/20 10:22:41;;;;;;;10.32;9.32;;;5.80;99.90;;;;;;5000755;28;20193;-76
2022/12/20 10:25:17;;;;;;;9.52;8.50;;;5.80;99.90;;;;;;4998108;28;20231;-75
2022/12/20 10:27:46;;;;;;;11.75;10.38;;;5.90;99.90;;;;;;5003493;28;20227;-78
2022/12/20 10:30:18;;;;;;;12.38;9.85;;;5.90;99.90;;;;;;5000415;28;20247;-76
2022/12/20 10:32:49;;;;;;;12.32;11.10;;;5.70;99.90;;;;;;4997697;28;20200;-76
2022/12/20 10:35:23;;;;;;;12.75;11.45;;;5.60;99.90;;;;;;5004392;28;20239;-75
2022/12/20 10:38:02;;;;;;;12.07;10.80;;;5.60;99.90;;;;;;5001629;28;20716;-77
2022/12/20 10:40:31;;;;;;;13.27;10.85;;;5.80;99.90;;;;;;5001152;28;20599;-76
2022/12/20 10:42:59;;;;;;;13.38;11.00;;;6.00;99.90;;;;;;4998665;28;20200;-77
2022/12/20 10:45:45;;;;;;;11.30;10.18;;;6.50;99.90;;;;;;4999164;28;20217;-76
2022/12/20 10:48:29;;;;;;;10.38;9.40;;;6.80;99.90;;;;;;4997677;28;20216;-76
2022/12/20 10:50:57;;;;;;;9.65;8.65;;;7.00;99.90;;;;;;5001148;28;20228;-76
2022/12/20 10:53:27;;;;;;;9.65;8.65;;;7.20;99.90;;;;;;5000037;28;20200;-76
2022/12/20 10:56:08;;;;;;;12.52;9.45;;;7.50;99.90;;;;;;5000273;28;20214;-75
2022/12/20 10:58:37;;;;;;;11.13;9.85;;;7.60;99.90;;;;;;4997992;28;20232;-76
2022/12/20 11:01:11;;;;;;;11.45;9.75;;;7.50;99.90;;;;;;5013464;28;20431;-76
2022/12/20 11:03:51;;;;;;;12.95;9.88;;;7.50;99.90;;;;;;5000051;28;20228;-76
2022/12/20 11:06:19;;;;;;;10.30;9.30;;;7.40;99.90;;;;;;5000190;28;20230;-76
2022/12/20 11:08:48;;;;;;;13.55;9.43;;;7.30;99.90;;;;;;5002345;28;20232;-76
2022/12/20 11:11:18;;;;;;;10.15;8.90;;;7.30;99.90;;;;;;5000925;28;20204;-76
2022/12/20 11:13:46;;;;;;;11.20;10.05;;;7.50;99.90;;;;;;5002971;28;20228;-75
2022/12/20 11:16:31;;;;;;;10.73;9.23;;;7.60;99.90;;;;;;4998394;28;20675;-76
2022/12/20 11:19:29;;;;;;;9.98;8.98;;;7.70;99.90;;;;;;5001757;28;20228;-75
2022/12/20 11:22:02;;;;;;;9.35;8.45;;;7.60;99.90;;;;;;4999727;28;20275;-76
2022/12/20 11:24:35;;;;;;;10.38;8.20;;;7.50;99.90;;;;;;4997607;28;20627;-76
2022/12/20 11:27:16;;;;;;;11.00;8.82;;;7.60;99.90;;;;;;4999164;28;20231;-76
2022/12/20 11:30:04;;;;;;;12.07;8.93;;;7.50;99.90;;;;;;5001095;28;20670;-75
2022/12/20 11:32:55;;;;;;;11.20;10.00;;;7.40;99.90;;;;;;5000317;28;20469;-76
2022/12/20 11:35:32;;;;;;;13.05;9.65;;;7.10;99.90;;;;;;4982024;28;20735;-75
2022/12/20 11:38:07;;;;;;;10.68;9.40;;;6.70;99.90;;;;;;4983082;28;20528;-76
2022/12/20 11:40:41;;;;;;;10.93;9.25;;;6.50;99.90;;;;;;4979825;28;20227;-76
2022/12/20 11:43:25;;;;;;;10.02;9.05;;;6.20;99.90;;;;;;4983705;28;20201;-76
2022/12/20 11:46:08;;;;;;;9.25;8.35;;;6.00;99.90;;;;;;4979558;28;20233;-75
2022/12/20 11:48:53;;;;;;;10.10;9.07;;;5.80;99.90;;;;;;4980497;28;20546;-75
2022/12/20 11:51:24;;;;;;;9.85;8.85;;;5.80;99.90;;;;;;4978764;28;20675;-76
2022/12/20 11:53:57;;;;;;;13.10;8.50;;;6.00;99.90;;;;;;4980161;28;20225;-76
2022/12/20 11:56:30;;;;;;;13.52;10.00;;;6.20;99.90;;;;;;4995241;28;20212;-76
2022/12/20 11:59:03;;;;;;;8.85;7.95;;;6.30;99.90;;;;;;4988966;28;20252;-75
2022/12/20 12:01:34;;;;;;;9.35;8.45;;;6.60;99.90;;;;;;4982102;28;20201;-75
2022/12/20 12:04:09;;;;;;;8.60;7.80;;;6.70;99.90;;;;;;4984368;28;20772;-76
2022/12/20 12:06:41;;;;;;;9.95;8.55;;;6.90;99.90;;;;;;4984683;28;20630;-77
2022/12/20 12:09:17;;;;;;;9.40;8.48;;;7.00;99.90;;;;;;4983620;28;20217;-75
2022/12/20 12:11:49;;;;;;;10.48;8.82;;;7.20;99.90;;;;;;4985030;28;20193;-75
2022/12/20 12:14:27;;;;;;;9.45;8.55;;;7.40;99.90;;;;;;4981342;28;20602;-77
2022/12/20 12:17:00;;;;;;;9.35;8.32;;;7.50;99.90;;;;;;4987651;28;20216;-75
2022/12/20 12:19:29;;;;;;;9.98;8.63;;;7.30;99.90;;;;;;4980897;28;20221;-77
2022/12/20 12:22:02;;;;;;;9.45;8.45;;;7.30;99.90;;;;;;4982951;28;20205;-76
2022/12/20 12:24:34;;;;;;;10.98;9.88;;;7.20;99.90;;;;;;4979299;28;20223;-76
2022/12/20 12:27:02;;;;;;;12.32;8.60;;;7.20;99.90;;;;;;4987108;28;20221;-76
2022/12/20 12:29:31;;;;;;;11.98;9.38;;;7.10;99.90;;;;;;4977550;28;20232;-76
2022/12/20 12:32:03;;;;;;;12.18;9.93;;;7.00;99.90;;;;;;4985159;28;20220;-76
2022/12/20 12:34:44;;;;;;;11.05;8.57;;;6.80;99.90;;;;;;4995225;28;20243;-76
2022/12/20 12:37:45;;;;;;;9.90;8.70;;;6.60;99.90;;;;;;5004114;28;20239;-76
2022/12/20 12:40:38;;;;;;;10.52;9.52;;;6.20;99.90;;;;;;4993889;28;20257;-76
2022/12/20 12:43:32;;;;;;;12.85;10.35;;;6.00;99.90;;;;;;4999080;28;20197;-76
2022/12/20 12:46:01;;;;;;;16.77;11.57;;;6.00;99.90;;;;;;4997720;28;20220;-75
2022/12/20 12:48:40;;;;;;;15.75;10.90;;;6.00;99.90;;;;;;4997790;28;20193;-76
2022/12/20 12:51:07;;;;;;;10.02;8.40;;;5.90;99.90;;;;;;5001323;28;20216;-77
2022/12/20 12:53:42;;;;;;;9.25;8.45;;;5.90;99.90;;;;;;5002751;28;20360;-77
2022/12/20 12:56:39;;;;;;;9.23;8.25;;;5.90;99.90;;;;;;5005612;28;20204;-75
2022/12/20 12:59:19;;;;;;;8.85;8.02;;;5.80;99.90;;;;;;4967974;28;20236;-76
2022/12/20 13:01:48;;;;;;;15.55;12.00;;;6.00;99.90;;;;;;5001115;28;20680;-75
2022/12/20 13:04:26;;;;;;;13.85;11.43;;;6.30;99.90;;;;;;4997391;28;20212;-75
2022/12/20 13:07:18;;;;;;;11.00;9.88;;;6.40;99.90;;;;;;4999346;28;20227;-76
2022/12/20 13:09:49;;;;;;;11.23;9.43;;;6.40;99.90;;;;;;5000974;28;20234;-76
2022/12/20 13:12:57;;;;;;;11.20;9.55;;;6.40;99.90;;;;;;4997135;28;20201;-76
2022/12/20 13:15:47;;;;;;;10.15;8.75;;;6.20;99.90;;;;;;5005076;28;20323;-77
2022/12/20 13:18:25;;;;;;;10.40;8.88;;;6.20;99.90;;;;;;5005963;28;20232;-75